createdAt,value
2022-11-18T00:01:36.446Z,18.98
2022-11-18T00:04:03.055Z,19.35
2022-11-18T00:06:30.424Z,19.00
2022-11-18T00:08:59.444Z,19.67
2022-11-18T00:11:46.269Z,18.85
2022-11-18T00:14:19.520Z,20.02
2022-11-18T00:16:47.967Z,20.40
2022-11-18T00:19:15.488Z,18.63
2022-11-18T00:21:42.602Z,18.98
2022-11-18T00:24:09.509Z,18.73
2022-11-18T00:26:36.485Z,20.27
2022-11-18T00:29:03.703Z,19.35
2022-11-18T00:31:30.519Z,19.88
2022-11-18T00:33:57.153Z,18.73
2022-11-18T00:36:23.754Z,20.42
2022-11-18T00:38:50.342Z,18.05
2022-11-18T00:41:17.018Z,18.48
2022-11-18T00:43:43.651Z,17.17
2022-11-18T00:46:12.097Z,18.85
2022-11-18T00:48:39.680Z,18.38
2022-11-18T00:51:14.044Z,19.85
2022-11-18T00:53:40.869Z,17.38
2022-11-18T00:56:08.686Z,20.50
2022-11-18T00:58:35.879Z,17.95
2022-11-18T01:01:03.792Z,18.58
2022-11-18T01:03:30.830Z,19.88
2022-11-18T01:05:57.651Z,20.63
2022-11-18T01:08:25.868Z,19.38
2022-11-18T01:10:52.574Z,19.63
2022-11-18T01:13:20.900Z,19.95
2022-11-18T01:15:52.909Z,23.33
2022-11-18T01:18:23.394Z,20.00
2022-11-18T01:20:50.319Z,19.63
2022-11-18T01:23:18.870Z,22.25
2022-11-18T01:25:48.089Z,20.92
2022-11-18T01:28:22.981Z,19.90
2022-11-18T01:30:50.093Z,20.60
2022-11-18T01:33:16.695Z,21.35
2022-11-18T01:35:44.004Z,19.77
2022-11-18T01:38:12.706Z,19.67
2022-11-18T01:40:39.852Z,22.20
2022-11-18T01:43:12.894Z,22.08
2022-11-18T01:45:40.879Z,20.30
2022-11-18T01:48:09.742Z,19.67
2022-11-18T01:50:44.848Z,18.75
2022-11-18T01:53:19.927Z,18.55
2022-11-18T01:55:50.820Z,19.33
2022-11-18T01:58:36.172Z,17.85
2022-11-18T02:01:04.437Z,19.38
2022-11-18T02:03:32.557Z,19.50
2022-11-18T02:06:01.701Z,18.60
2022-11-18T02:08:29.986Z,17.90
2022-11-18T02:10:56.664Z,19.50
2022-11-18T02:13:23.970Z,19.42
2022-11-18T02:16:20.600Z,19.33
2022-11-18T02:19:28.780Z,18.50
2022-11-18T02:22:19.547Z,16.98
2022-11-18T02:25:23.451Z,19.77
2022-11-18T02:27:49.982Z,17.13
2022-11-18T02:30:18.666Z,16.05
2022-11-18T02:33:00.230Z,16.15
2022-11-18T02:35:56.696Z,15.13
2022-11-18T02:38:40.475Z,16.05
2022-11-18T02:41:16.359Z,17.48
2022-11-18T02:44:08.084Z,17.52
2022-11-18T02:46:38.470Z,17.20
2022-11-18T02:49:12.176Z,17.80
2022-11-18T02:51:41.840Z,15.40
2022-11-18T02:54:10.451Z,14.95
2022-11-18T02:56:37.721Z,15.15
2022-11-18T02:59:04.864Z,14.13
2022-11-18T03:01:34.653Z,14.52
2022-11-18T03:04:01.763Z,15.30
2022-11-18T03:06:38.551Z,14.60
2022-11-18T03:09:24.770Z,15.30
2022-11-18T03:12:09.780Z,14.97
2022-11-18T03:14:51.387Z,15.65
2022-11-18T03:17:17.905Z,15.80
2022-11-18T03:19:52.015Z,15.70
2022-11-18T03:22:26.238Z,15.75
2022-11-18T03:25:08.987Z,16.52
2022-11-18T03:27:54.415Z,15.63
2022-11-18T03:30:23.594Z,16.20
2022-11-18T03:33:06.017Z,19.55
2022-11-18T03:35:37.398Z,17.80
2022-11-18T03:38:29.157Z,16.73
2022-11-18T03:40:59.939Z,18.65
2022-11-18T03:43:34.299Z,16.30
2022-11-18T03:46:08.907Z,17.80
2022-11-18T03:48:42.109Z,17.45
2022-11-18T03:51:12.340Z,18.77
2022-11-18T03:53:44.317Z,19.35
2022-11-18T03:56:18.146Z,17.90
2022-11-18T03:58:56.992Z,17.83
2022-11-18T04:01:39.545Z,18.55
2022-11-18T04:04:07.281Z,16.95
2022-11-18T04:06:42.381Z,15.82
2022-11-18T04:09:18.757Z,17.13
2022-11-18T04:12:02.889Z,17.15
2022-11-18T04:14:32.627Z,19.23
2022-11-18T04:16:59.253Z,17.52
2022-11-18T04:19:26.025Z,19.20
2022-11-18T04:21:52.666Z,18.08
2022-11-18T04:24:19.500Z,19.63
2022-11-18T04:26:46.087Z,18.25
2022-11-18T04:29:12.701Z,19.25
2022-11-18T04:31:39.361Z,19.27
2022-11-18T04:34:05.952Z,20.10
2022-11-18T04:36:32.527Z,19.23
2022-11-18T04:38:59.292Z,21.52
2022-11-18T04:41:46.017Z,21.38
2022-11-18T04:44:13.314Z,20.17
2022-11-18T04:46:44.480Z,20.58
2022-11-18T04:49:13.424Z,19.52
2022-11-18T04:51:41.504Z,18.52
2022-11-18T04:54:09.122Z,20.73
2022-11-18T04:56:35.872Z,19.20
2022-11-18T04:59:03.779Z,18.48
2022-11-18T05:01:30.873Z,19.65
2022-11-18T05:03:57.790Z,19.52
2022-11-18T05:06:24.353Z,19.13
2022-11-18T05:08:50.960Z,22.02
2022-11-18T05:11:36.169Z,21.80
2022-11-18T05:14:02.868Z,20.88
2022-11-18T05:16:29.448Z,20.92
2022-11-18T05:18:56.162Z,19.58
2022-11-18T05:21:22.769Z,19.67
2022-11-18T05:23:49.761Z,22.20
2022-11-18T05:26:16.404Z,21.73
2022-11-18T05:28:44.310Z,20.33
2022-11-18T05:31:14.111Z,19.40
2022-11-18T05:33:41.821Z,22.20
2022-11-18T05:36:11.155Z,21.88
2022-11-18T05:38:38.111Z,21.45
2022-11-18T05:41:05.286Z,24.98
2022-11-18T05:43:32.931Z,20.95
2022-11-18T05:46:00.031Z,21.13
2022-11-18T05:48:27.217Z,20.58
2022-11-18T05:50:55.426Z,21.80
2022-11-18T05:53:25.199Z,21.77
2022-11-18T05:56:04.806Z,23.08
2022-11-18T05:58:31.439Z,21.95
2022-11-18T06:01:03.135Z,20.15
2022-11-18T06:03:32.781Z,23.13
2022-11-18T06:06:02.362Z,20.83
2022-11-18T06:08:39.586Z,22.10
2022-11-18T06:11:09.012Z,23.73
2022-11-18T06:13:41.257Z,21.33
2022-11-18T06:16:08.143Z,22.33
2022-11-18T06:18:36.025Z,21.45
2022-11-18T06:21:05.348Z,22.75
2022-11-18T06:23:41.244Z,23.90
2022-11-18T06:26:09.810Z,21.77
2022-11-18T06:28:36.642Z,23.13
2022-11-18T06:31:03.257Z,23.33
2022-11-18T06:33:29.823Z,26.08
2022-11-18T06:35:56.432Z,22.42
2022-11-18T06:38:26.254Z,28.38
2022-11-18T06:40:52.922Z,26.52
2022-11-18T06:43:38.057Z,25.77
2022-11-18T06:46:25.093Z,27.80
2022-11-18T06:51:18.623Z,23.70
2022-11-18T06:53:45.684Z,25.67
2022-11-18T06:56:14.872Z,24.58
2022-11-18T06:58:41.501Z,27.35
2022-11-18T07:01:19.277Z,26.08
2022-11-18T07:03:46.486Z,25.42
2022-11-18T07:06:15.454Z,28.42
2022-11-18T07:08:43.105Z,28.08
2022-11-18T07:11:15.265Z,26.63
2022-11-18T07:13:43.757Z,23.08
2022-11-18T07:16:16.713Z,24.38
2022-11-18T07:18:44.810Z,25.63
2022-11-18T07:21:17.459Z,25.38
2022-11-18T07:23:44.962Z,26.02
2022-11-18T07:26:12.279Z,27.88
2022-11-18T07:28:39.323Z,24.23
2022-11-18T07:31:11.664Z,23.95
2022-11-18T07:33:39.832Z,26.08
2022-11-18T07:36:11.823Z,23.25
2022-11-18T07:38:38.901Z,22.73
2022-11-18T07:41:09.464Z,24.23
2022-11-18T07:43:37.052Z,24.15
2022-11-18T07:46:15.799Z,21.73
2022-11-18T07:48:44.263Z,26.80
2022-11-18T07:51:11.606Z,20.77
2022-11-18T07:53:38.271Z,22.77
2022-11-18T07:56:06.220Z,19.67
2022-11-18T07:58:32.995Z,21.30
2022-11-18T08:01:06.215Z,20.20
2022-11-18T08:03:32.839Z,22.85
2022-11-18T08:06:00.303Z,23.25
2022-11-18T08:08:27.390Z,17.85
2022-11-18T08:10:58.764Z,24.63
2022-11-18T08:13:26.638Z,22.17
2022-11-18T08:15:54.352Z,22.38
2022-11-18T08:18:21.421Z,20.35
2022-11-18T08:20:48.072Z,21.70
2022-11-18T08:23:15.627Z,20.42
2022-11-18T08:25:44.547Z,22.15
2022-11-18T08:28:12.941Z,20.52
2022-11-18T08:30:40.049Z,20.27
2022-11-18T08:33:06.764Z,19.67
2022-11-18T08:35:34.000Z,19.98
2022-11-18T08:38:00.826Z,20.20
2022-11-18T08:40:27.451Z,19.75
2022-11-18T08:42:54.139Z,20.40
2022-11-18T08:45:20.817Z,19.58
2022-11-18T08:47:47.414Z,16.27
2022-11-18T08:50:14.040Z,18.33
2022-11-18T08:52:40.697Z,18.73
2022-11-18T08:55:07.530Z,18.13
2022-11-18T08:57:34.158Z,17.80
2022-11-18T09:00:00.846Z,17.15
2022-11-18T09:02:27.450Z,16.23
2022-11-18T09:04:55.929Z,15.80
2022-11-18T09:07:22.583Z,16.88
2022-11-18T09:09:49.696Z,17.55
2022-11-18T09:12:17.724Z,14.88
2022-11-18T09:17:32.277Z,15.38
2022-11-18T09:19:58.910Z,13.82
2022-11-18T09:22:26.563Z,15.20
2022-11-18T09:24:53.204Z,16.08
2022-11-18T09:27:19.853Z,15.23
2022-11-18T09:29:46.647Z,13.48
2022-11-18T09:32:13.329Z,15.40
2022-11-18T09:34:40.026Z,13.88
2022-11-18T09:37:07.040Z,13.27
2022-11-18T09:39:37.291Z,12.75
2022-11-18T09:42:28.837Z,13.02
2022-11-18T09:45:33.693Z,11.68
2022-11-18T09:48:07.852Z,11.35
2022-11-18T09:50:49.065Z,12.57
2022-11-18T09:53:22.004Z,12.07
2022-11-18T09:55:50.861Z,10.77
2022-11-18T09:58:38.563Z,11.27
2022-11-18T10:01:12.357Z,12.23
2022-11-18T10:03:39.940Z,9.57
2022-11-18T10:06:12.299Z,11.93
2022-11-18T10:09:05.586Z,11.30
2022-11-18T10:11:51.632Z,12.60
2022-11-18T10:14:53.264Z,10.85
2022-11-18T10:17:37.146Z,12.98
2022-11-18T10:20:33.305Z,10.88
2022-11-18T10:23:24.156Z,10.23
2022-11-18T10:25:52.993Z,10.20
2022-11-18T10:28:29.316Z,8.73
2022-11-18T10:31:11.072Z,9.68
2022-11-18T10:33:38.541Z,8.15
2022-11-18T10:36:16.303Z,9.75
2022-11-18T10:38:49.511Z,8.98
2022-11-18T10:41:20.509Z,7.40
2022-11-18T10:43:53.830Z,8.82
2022-11-18T10:46:27.793Z,8.68
2022-11-18T10:49:12.154Z,10.80
2022-11-18T10:52:12.588Z,10.38
2022-11-18T10:54:39.929Z,8.50
2022-11-18T10:57:08.363Z,8.20
2022-11-18T10:59:48.098Z,9.60
2022-11-18T11:02:32.626Z,10.07
2022-11-18T11:05:02.734Z,10.48
2022-11-18T11:07:35.124Z,9.57
2022-11-18T11:10:04.865Z,10.90
2022-11-18T11:12:38.964Z,10.88
2022-11-18T11:15:11.375Z,9.05
2022-11-18T11:17:45.693Z,9.13
2022-11-18T11:20:24.054Z,10.07
2022-11-18T11:22:50.671Z,11.07
2022-11-18T11:25:28.244Z,9.63
2022-11-18T11:28:14.493Z,9.63
2022-11-18T11:30:50.064Z,10.90
2022-11-18T11:33:31.293Z,10.65
2022-11-18T11:36:15.978Z,9.98
2022-11-18T11:38:58.676Z,9.10
2022-11-18T11:42:06.145Z,10.20
2022-11-18T11:44:44.909Z,8.82
2022-11-18T11:47:56.932Z,8.88
2022-11-18T11:50:33.020Z,9.15
2022-11-18T11:53:05.477Z,11.07
2022-11-18T11:56:06.260Z,9.52
2022-11-18T11:58:35.885Z,11.18
2022-11-18T12:01:14.355Z,9.43
2022-11-18T12:03:52.487Z,9.98
2022-11-18T12:06:19.662Z,10.75
2022-11-18T12:09:02.552Z,9.00
2022-11-18T12:12:06.023Z,9.18
2022-11-18T12:14:43.596Z,8.77
2022-11-18T12:17:24.836Z,7.72
2022-11-18T12:19:51.738Z,8.75
2022-11-18T12:22:18.380Z,11.57
2022-11-18T12:24:45.004Z,9.38
2022-11-18T12:27:36.933Z,7.35
2022-11-18T12:30:04.270Z,8.88
2022-11-18T12:32:43.789Z,8.98
2022-11-18T12:35:13.478Z,8.63
2022-11-18T12:37:44.035Z,9.38
2022-11-18T12:40:31.695Z,7.75
2022-11-18T12:43:16.775Z,8.43
2022-11-18T12:45:44.219Z,8.65
2022-11-18T12:48:31.419Z,11.13
2022-11-18T12:51:21.313Z,7.35
2022-11-18T12:53:49.689Z,9.85
2022-11-18T12:56:19.635Z,8.63
2022-11-18T12:58:55.261Z,7.15
2022-11-18T13:01:25.512Z,8.17
2022-11-18T13:03:52.831Z,12.15
2022-11-18T13:06:26.865Z,7.65
2022-11-18T13:08:58.181Z,7.50
2022-11-18T13:11:45.532Z,6.63
2022-11-18T13:15:03.608Z,7.35
2022-11-18T13:17:50.266Z,7.82
2022-11-18T13:20:38.322Z,5.13
2022-11-18T13:23:35.679Z,8.25
2022-11-18T13:26:12.330Z,5.85
2022-11-18T13:28:57.085Z,5.78
2022-11-18T13:31:35.700Z,6.20
2022-11-18T13:34:04.076Z,7.18
2022-11-18T13:36:32.653Z,5.75
2022-11-18T13:39:05.285Z,7.47
2022-11-18T13:41:35.136Z,6.43
2022-11-18T13:44:24.960Z,6.85
2022-11-18T13:47:20.968Z,5.90
2022-11-18T13:49:54.028Z,6.07
2022-11-18T13:52:26.264Z,5.50
2022-11-18T13:54:55.647Z,5.53
2022-11-18T13:57:26.176Z,5.50
2022-11-18T13:59:54.946Z,4.82
2022-11-18T14:02:22.250Z,6.85
2022-11-18T14:04:58.292Z,6.00
2022-11-18T14:07:33.689Z,6.57
2022-11-18T14:10:08.460Z,7.25
2022-11-18T14:12:36.975Z,6.43
2022-11-18T14:15:32.465Z,5.85
2022-11-18T14:18:01.182Z,4.95
2022-11-18T14:20:30.398Z,4.07
2022-11-18T14:22:59.772Z,6.35
2022-11-18T14:25:35.174Z,5.35
2022-11-18T14:28:17.038Z,4.78
2022-11-18T14:30:58.752Z,4.65
2022-11-18T14:33:26.268Z,5.10
2022-11-18T14:36:02.207Z,6.97
2022-11-18T14:38:57.505Z,5.65
2022-11-18T14:42:02.672Z,4.30
2022-11-18T14:44:30.584Z,3.58
2022-11-18T14:47:03.262Z,4.55
2022-11-18T14:49:32.678Z,3.42
2022-11-18T14:52:02.496Z,3.63
2022-11-18T14:54:29.646Z,3.53
2022-11-18T14:57:00.642Z,3.38
2022-11-18T14:59:27.590Z,3.30
2022-11-18T15:01:54.950Z,3.28
2022-11-18T15:04:22.172Z,3.40
2022-11-18T15:06:49.345Z,3.88
2022-11-18T15:09:16.443Z,3.10
2022-11-18T15:11:43.077Z,4.00
2022-11-18T15:14:09.720Z,3.50
2022-11-18T15:16:36.349Z,3.20
2022-11-18T15:19:05.058Z,3.25
2022-11-18T15:21:32.411Z,2.95
2022-11-18T15:23:59.235Z,3.60
2022-11-18T15:26:35.914Z,3.80
2022-11-18T15:29:03.288Z,3.30
2022-11-18T15:31:29.941Z,3.20
2022-11-18T15:33:58.904Z,3.40
2022-11-18T15:36:28.730Z,3.72
2022-11-18T15:38:55.629Z,3.67
2022-11-18T15:41:27.341Z,3.30
2022-11-18T15:43:55.484Z,2.95
2022-11-18T15:46:23.734Z,3.67
2022-11-18T15:48:58.320Z,4.68
2022-11-18T15:51:26.853Z,4.05
2022-11-18T15:53:54.345Z,5.53
2022-11-18T15:56:23.668Z,5.05
2022-11-18T15:58:57.364Z,4.40
2022-11-18T16:01:25.842Z,4.95
2022-11-18T16:03:53.041Z,4.28
2022-11-18T16:06:19.717Z,3.95
2022-11-18T16:08:46.404Z,4.78
2022-11-18T16:11:33.560Z,3.78
2022-11-18T16:14:04.732Z,3.42
2022-11-18T16:16:32.617Z,5.70
2022-11-18T16:19:01.888Z,5.30
2022-11-18T16:21:33.447Z,3.97
2022-11-18T16:24:02.121Z,9.10
2022-11-18T16:26:32.858Z,5.00
2022-11-18T16:29:00.835Z,7.60
2022-11-18T16:31:43.768Z,5.72
2022-11-18T16:34:24.219Z,4.75
2022-11-18T16:36:53.457Z,3.83
2022-11-18T16:39:25.739Z,5.85
2022-11-18T16:41:54.633Z,4.25
2022-11-18T16:44:21.438Z,5.90
2022-11-18T16:46:53.455Z,5.20
2022-11-18T16:49:23.583Z,6.50
2022-11-18T16:51:52.882Z,4.78
2022-11-18T16:54:22.863Z,4.13
2022-11-18T16:56:50.542Z,4.35
2022-11-18T16:59:22.441Z,5.38
2022-11-18T17:01:54.260Z,7.38
2022-11-18T17:04:21.766Z,10.20
2022-11-18T17:06:48.493Z,8.32
2022-11-18T17:09:21.055Z,6.70
2022-11-18T17:11:48.576Z,5.43
2022-11-18T17:14:15.620Z,4.82
2022-11-18T17:16:42.486Z,6.93
2022-11-18T17:19:13.918Z,3.78
2022-11-18T17:21:40.988Z,4.68
2022-11-18T17:24:08.416Z,4.07
2022-11-18T17:26:35.135Z,7.28
2022-11-18T17:29:01.816Z,5.40
2022-11-18T17:31:28.432Z,4.50
2022-11-18T17:33:56.553Z,6.93
2022-11-18T17:36:25.712Z,5.30
2022-11-18T17:38:54.387Z,5.03
2022-11-18T17:41:41.855Z,5.10
2022-11-18T17:44:11.139Z,5.55
2022-11-18T17:46:38.736Z,5.45
2022-11-18T17:49:13.045Z,6.28
2022-11-18T17:51:40.181Z,8.70
2022-11-18T17:54:07.962Z,7.53
2022-11-18T17:56:34.996Z,14.27
2022-11-18T17:59:01.624Z,8.40
2022-11-18T18:01:28.283Z,8.07
2022-11-18T18:03:54.942Z,7.18
2022-11-18T18:06:21.568Z,6.30
2022-11-18T18:08:48.665Z,13.52
2022-11-18T18:11:19.464Z,9.93
2022-11-18T18:14:04.646Z,13.98
2022-11-18T18:16:33.516Z,9.40
2022-11-18T18:19:02.548Z,10.43
2022-11-18T18:21:29.168Z,8.75
2022-11-18T18:23:56.172Z,8.30
2022-11-18T18:26:26.763Z,8.10
2022-11-18T18:28:58.491Z,9.23
2022-11-18T18:31:25.159Z,6.35
2022-11-18T18:33:51.725Z,6.47
2022-11-18T18:36:20.299Z,7.30
2022-11-18T18:38:47.529Z,8.05
2022-11-18T18:41:17.152Z,9.27
2022-11-18T18:43:44.313Z,10.52
2022-11-18T18:46:33.770Z,13.65
2022-11-18T18:49:06.103Z,12.93
2022-11-18T18:51:38.048Z,10.15
2022-11-18T18:54:05.672Z,8.35
2022-11-18T18:56:33.203Z,7.47
2022-11-18T18:59:00.453Z,8.05
2022-11-18T19:01:28.300Z,7.88
2022-11-18T19:03:57.271Z,9.30
2022-11-18T19:09:12.519Z,9.65
2022-11-18T19:11:57.895Z,11.52
2022-11-18T19:14:25.485Z,12.35
2022-11-18T19:16:53.533Z,10.90
2022-11-18T19:19:42.984Z,15.23
2022-11-18T19:22:11.226Z,18.00
2022-11-18T19:24:54.210Z,17.35
2022-11-18T19:27:21.954Z,12.15
2022-11-18T19:29:48.720Z,9.27
2022-11-18T19:32:15.496Z,13.32
2022-11-18T19:34:43.170Z,9.05
2022-11-18T19:37:09.802Z,8.90
2022-11-18T19:39:38.329Z,11.10
2022-11-18T19:42:05.134Z,9.07
2022-11-18T19:44:31.900Z,10.70
2022-11-18T19:46:59.155Z,8.85
2022-11-18T19:49:25.815Z,8.18
2022-11-18T19:51:52.434Z,6.80
2022-11-18T19:54:19.084Z,7.75
2022-11-18T19:56:45.713Z,7.65
2022-11-18T19:59:12.744Z,12.60
2022-11-18T20:01:39.946Z,10.13
2022-11-18T20:04:06.900Z,10.10
2022-11-18T20:06:35.564Z,10.57
2022-11-18T20:09:03.123Z,10.43
2022-11-18T20:11:29.785Z,9.48
2022-11-18T20:13:56.667Z,9.20
2022-11-18T20:16:25.473Z,9.05
2022-11-18T20:18:57.027Z,7.90
2022-11-18T20:21:25.596Z,9.95
2022-11-18T20:23:55.874Z,9.52
2022-11-18T20:26:24.532Z,9.23
2022-11-18T20:28:57.015Z,10.40
2022-11-18T20:31:25.331Z,9.55
2022-11-18T20:33:53.572Z,9.45
2022-11-18T20:36:21.312Z,9.45
2022-11-18T20:38:50.409Z,10.15
2022-11-18T20:41:18.086Z,11.02
2022-11-18T20:43:45.342Z,10.88
2022-11-18T20:46:17.245Z,10.45
2022-11-18T20:48:46.738Z,10.90
2022-11-18T20:51:16.018Z,12.20
2022-11-18T20:53:43.206Z,10.27
2022-11-18T20:56:14.785Z,12.13
2022-11-18T20:58:41.860Z,11.73
2022-11-18T21:01:16.920Z,11.13
2022-11-18T21:03:48.799Z,11.90
2022-11-18T21:06:15.581Z,12.02
2022-11-18T21:08:42.641Z,10.30
2022-11-18T21:11:11.260Z,9.52
2022-11-18T21:13:56.981Z,12.73
2022-11-18T21:16:25.302Z,10.10
2022-11-18T21:18:51.938Z,12.50
2022-11-18T21:21:37.407Z,12.07
2022-11-18T21:24:04.600Z,14.32
2022-11-18T21:26:33.330Z,13.48
2022-11-18T21:29:02.550Z,12.95
2022-11-18T21:31:29.555Z,42.80
2022-11-18T21:33:57.083Z,42.85
2022-11-18T21:36:26.156Z,16.23
2022-11-18T21:38:53.275Z,13.50
2022-11-18T21:41:19.980Z,12.63
2022-11-18T21:46:35.301Z,14.40
2022-11-18T21:49:02.611Z,15.20
2022-11-18T21:51:31.362Z,16.38
2022-11-18T21:53:58.689Z,12.05
2022-11-18T21:56:28.820Z,13.00
2022-11-18T21:58:56.516Z,12.57
2022-11-18T22:01:25.872Z,14.75
2022-11-18T22:03:55.958Z,17.20
2022-11-18T22:06:24.770Z,14.57
2022-11-18T22:08:52.162Z,15.55
2022-11-18T22:11:22.566Z,16.77
2022-11-18T22:13:50.814Z,18.20
2022-11-18T22:16:19.261Z,16.02
2022-11-18T22:18:51.572Z,16.95
2022-11-18T22:21:21.657Z,15.45
2022-11-18T22:23:48.605Z,17.63
2022-11-18T22:26:20.391Z,16.60
2022-11-18T22:28:47.784Z,12.55
2022-11-18T22:31:20.445Z,15.18
2022-11-18T22:33:48.437Z,14.40
2022-11-18T22:36:17.535Z,13.43
2022-11-18T22:38:45.197Z,16.60
2022-11-18T22:41:35.879Z,14.15
2022-11-18T22:44:07.664Z,14.52
2022-11-18T22:46:39.458Z,11.98
2022-11-18T22:49:07.290Z,13.35
2022-11-18T22:51:34.127Z,14.48
2022-11-18T22:54:30.774Z,13.77
2022-11-18T22:56:47.481Z,15.20
2022-11-18T22:59:14.292Z,14.93
2022-11-18T23:01:41.059Z,14.07
2022-11-18T23:04:07.748Z,13.25
2022-11-18T23:06:34.681Z,12.00
2022-11-18T23:09:01.444Z,11.68
2022-11-18T23:11:46.832Z,13.63
2022-11-18T23:14:13.473Z,10.68
2022-11-18T23:16:42.510Z,11.00
2022-11-18T23:19:11.675Z,9.95
2022-11-18T23:21:39.151Z,8.82
2022-11-18T23:24:06.417Z,9.50
2022-11-18T23:26:33.363Z,9.73
2022-11-18T23:29:00.080Z,8.70
2022-11-18T23:31:27.713Z,7.82
2022-11-18T23:33:55.548Z,6.63
2022-11-18T23:36:22.484Z,8.75
2022-11-18T23:38:49.313Z,7.20
2022-11-18T23:41:17.826Z,9.57
2022-11-18T23:43:46.963Z,8.02
2022-11-18T23:46:15.088Z,9.73
2022-11-18T23:48:42.677Z,9.57
2022-11-18T23:51:23.305Z,9.93
2022-11-18T23:53:54.965Z,7.82
2022-11-18T23:56:25.985Z,9.48
2022-11-18T23:58:54.561Z,8.77
